Time;durP1;ratioP1;P1;durP2;ratioP2;P2;SDS_P1;SDS_P2;PMS_P1;PMS_P2;Temp;Humidity;BMP_temperature;BMP_pressure;BME280_temperature;BME280_humidity;BME280_pressure;Samples;Min_cycle;Max_cycle;Signal;HPM_P1;HPM_P2
2021/05/20 00:00:19;;;;;;;14.70;9.30;;;;;;;;;;5087840;28;20470;-68
2021/05/20 00:02:45;;;;;;;13.57;8.73;;;;;;;;;;5085133;28;20048;-67
2021/05/20 00:05:12;;;;;;;16.70;9.07;;;;;;;;;;5088990;28;20514;-67
2021/05/20 00:07:38;;;;;;;17.52;9.10;;;;;;;;;;5086554;28;20031;-68
2021/05/20 00:10:05;;;;;;;16.98;9.00;;;;;;;;;;5084070;28;20035;-67
2021/05/20 00:12:31;;;;;;;18.42;9.68;;;;;;;;;;5087319;28;20086;-68
2021/05/20 00:14:57;;;;;;;17.65;10.40;;;;;;;;;;5082194;28;20040;-67
2021/05/20 00:17:24;;;;;;;16.30;10.57;;;;;;;;;;5081322;28;20027;-68
2021/05/20 00:19:50;;;;;;;17.60;10.80;;;;;;;;;;5083650;28;20068;-67
2021/05/20 00:22:16;;;;;;;17.27;10.32;;;;;;;;;;5071932;28;20036;-68
2021/05/20 00:24:42;;;;;;;16.73;10.48;;;;;;;;;;5086419;28;20029;-68
2021/05/20 00:27:08;;;;;;;21.73;10.77;;;;;;;;;;5087201;28;20028;-67
2021/05/20 00:29:34;;;;;;;16.92;10.30;;;;;;;;;;5091256;28;20027;-68
2021/05/20 00:32:00;;;;;;;20.38;11.88;;;;;;;;;;5090654;28;20116;-68
2021/05/20 00:34:26;;;;;;;20.77;12.48;;;;;;;;;;5078778;28;20032;-67
2021/05/20 00:36:52;;;;;;;21.60;11.55;;;;;;;;;;5069602;28;20092;-68
2021/05/20 00:39:18;;;;;;;18.17;10.68;;;;;;;;;;5073541;28;20024;-68
2021/05/20 00:41:44;;;;;;;23.75;11.88;;;;;;;;;;5080461;28;20035;-67
2021/05/20 00:44:10;;;;;;;20.45;12.40;;;;;;;;;;5088611;28;20035;-68
2021/05/20 00:46:36;;;;;;;19.52;11.45;;;;;;;;;;5074906;28;20027;-67
2021/05/20 00:49:09;;;;;;;23.33;12.98;;;;;;;;;;5090481;28;20020;-67
2021/05/20 00:51:35;;;;;;;22.90;13.13;;;;;;;;;;5082326;28;20027;-67
2021/05/20 00:54:02;;;;;;;20.77;13.05;;;;;;;;;;5083642;28;20023;-67
2021/05/20 00:56:28;;;;;;;24.00;13.85;;;;;;;;;;5074562;28;20036;-68
2021/05/20 00:58:54;;;;;;;19.98;12.50;;;;;;;;;;5082669;28;20074;-67
2021/05/20 01:01:20;;;;;;;22.77;14.18;;;;;;;;;;5090229;28;20020;-67
2021/05/20 01:03:46;;;;;;;26.35;15.60;;;;;;;;;;5088848;28;20131;-68
2021/05/20 01:06:12;;;;;;;26.05;15.07;;;;;;;;;;5076001;28;20043;-68
2021/05/20 01:08:38;;;;;;;25.67;16.25;;;;;;;;;;5078970;28;20024;-68
2021/05/20 01:11:04;;;;;;;23.88;15.15;;;;;;;;;;5082677;28;20043;-68
2021/05/20 01:13:31;;;;;;;30.30;17.73;;;;;;;;;;5089928;28;20495;-68
2021/05/20 01:15:57;;;;;;;35.25;19.63;;;;;;;;;;5081629;28;20138;-68
2021/05/20 01:18:23;;;;;;;35.17;22.55;;;;;;;;;;5081524;28;20028;-68
2021/05/20 01:20:49;;;;;;;35.08;20.67;;;;;;;;;;5078919;28;20415;-68
2021/05/20 01:23:17;;;;;;;28.45;18.42;;;;;;;;;;5064268;28;20024;-68
2021/05/20 01:25:44;;;;;;;32.47;20.45;;;;;;;;;;5063237;28;20020;-68
2021/05/20 01:28:12;;;;;;;30.90;21.25;;;;;;;;;;5073321;28;20028;-68
2021/05/20 01:30:39;;;;;;;34.47;20.63;;;;;;;;;;5078725;28;20027;-67
2021/05/20 01:33:05;;;;;;;31.90;20.38;;;;;;;;;;5089821;28;20047;-67
2021/05/20 01:35:31;;;;;;;33.15;22.73;;;;;;;;;;5084410;28;20039;-67
2021/05/20 01:40:54;;;;;;;33.63;21.38;;;;;;;;;;5077813;28;20021;-68
2021/05/20 01:43:20;;;;;;;32.38;20.38;;;;;;;;;;5079720;28;20032;-67
2021/05/20 01:45:51;;;;;;;30.63;21.20;;;;;;;;;;5079960;28;20024;-68
2021/05/20 01:48:17;;;;;;;29.35;18.95;;;;;;;;;;5091938;28;20509;-68
2021/05/20 01:50:43;;;;;;;30.35;20.98;;;;;;;;;;5090030;28;20035;-67
2021/05/20 01:53:09;;;;;;;29.95;19.67;;;;;;;;;;5094105;28;20107;-67
2021/05/20 01:55:35;;;;;;;28.35;19.02;;;;;;;;;;5083723;28;20033;-68
2021/05/20 01:58:01;;;;;;;31.73;20.17;;;;;;;;;;5091636;28;20024;-68
2021/05/20 02:00:27;;;;;;;32.92;18.85;;;;;;;;;;5089262;28;20066;-68
2021/05/20 02:02:53;;;;;;;33.85;20.80;;;;;;;;;;5092488;28;20036;-67
2021/05/20 02:05:20;;;;;;;29.95;20.23;;;;;;;;;;5083133;28;20055;-68
2021/05/20 02:07:46;;;;;;;27.92;19.45;;;;;;;;;;5091725;28;20028;-68
2021/05/20 02:10:12;;;;;;;29.15;18.55;;;;;;;;;;5085022;28;20609;-67
2021/05/20 02:12:38;;;;;;;27.45;19.48;;;;;;;;;;5084249;28;20416;-67
2021/05/20 02:15:05;;;;;;;27.50;18.55;;;;;;;;;;5073738;28;20508;-67
2021/05/20 02:17:32;;;;;;;26.38;18.17;;;;;;;;;;5083489;28;20055;-68
2021/05/20 02:19:58;;;;;;;27.10;19.05;;;;;;;;;;5092671;28;20245;-67
2021/05/20 02:22:24;;;;;;;30.45;18.67;;;;;;;;;;5087315;28;20016;-68
2021/05/20 02:24:50;;;;;;;30.85;18.55;;;;;;;;;;5084767;28;20032;-67
2021/05/20 02:27:16;;;;;;;27.83;18.52;;;;;;;;;;5091523;28;20028;-67
2021/05/20 02:29:42;;;;;;;25.88;17.15;;;;;;;;;;5087140;28;20020;-67
2021/05/20 02:32:08;;;;;;;31.95;20.77;;;;;;;;;;5086102;28;20032;-67
2021/05/20 02:34:34;;;;;;;31.02;19.83;;;;;;;;;;5086424;28;20493;-67
2021/05/20 02:37:00;;;;;;;30.80;19.48;;;;;;;;;;5092571;28;20086;-67
2021/05/20 02:39:26;;;;;;;30.60;20.85;;;;;;;;;;5092834;28;20020;-67
2021/05/20 02:41:52;;;;;;;32.45;20.23;;;;;;;;;;5083352;28;20487;-67
2021/05/20 02:44:18;;;;;;;32.97;20.48;;;;;;;;;;5072241;28;20025;-67
2021/05/20 02:46:44;;;;;;;33.53;22.30;;;;;;;;;;5077293;28;20028;-67
2021/05/20 02:49:10;;;;;;;31.80;20.60;;;;;;;;;;5072982;28;20058;-67
2021/05/20 02:51:36;;;;;;;33.63;21.40;;;;;;;;;;5090731;28;20406;-67
2021/05/20 02:54:02;;;;;;;29.80;19.50;;;;;;;;;;5086533;28;20472;-68
2021/05/20 02:56:28;;;;;;;40.45;21.63;;;;;;;;;;5086221;28;20024;-67
2021/05/20 02:58:54;;;;;;;36.63;21.67;;;;;;;;;;5086563;28;20025;-67
2021/05/20 03:01:23;;;;;;;30.63;20.92;;;;;;;;;;5082968;28;20437;-67
2021/05/20 03:03:49;;;;;;;35.13;21.48;;;;;;;;;;5070367;28;20068;-67
2021/05/20 03:06:15;;;;;;;34.78;22.13;;;;;;;;;;5090936;28;20020;-67
2021/05/20 03:08:41;;;;;;;30.15;21.00;;;;;;;;;;5080689;28;20052;-68
2021/05/20 03:11:07;;;;;;;31.73;21.48;;;;;;;;;;5089224;28;20050;-67
2021/05/20 03:13:33;;;;;;;34.88;22.15;;;;;;;;;;5078726;28;20102;-67
2021/05/20 03:15:59;;;;;;;35.85;23.10;;;;;;;;;;5087835;28;20510;-68
2021/05/20 03:18:25;;;;;;;32.70;21.85;;;;;;;;;;5088427;28;20653;-67
2021/05/20 03:20:51;;;;;;;31.77;21.55;;;;;;;;;;5084886;28;20027;-67
2021/05/20 03:23:17;;;;;;;37.58;22.77;;;;;;;;;;5079639;28;20033;-67
2021/05/20 03:25:43;;;;;;;32.97;23.42;;;;;;;;;;5091214;28;20475;-68
2021/05/20 03:28:09;;;;;;;34.95;22.42;;;;;;;;;;5089811;28;20043;-67
2021/05/20 03:30:35;;;;;;;39.38;22.88;;;;;;;;;;5061299;28;20491;-67
2021/05/20 03:33:01;;;;;;;33.97;21.17;;;;;;;;;;5090015;28;20035;-68
2021/05/20 03:35:27;;;;;;;31.45;21.60;;;;;;;;;;5089513;28;20552;-67
2021/05/20 03:37:53;;;;;;;33.42;22.33;;;;;;;;;;5071558;28;20471;-67
2021/05/20 03:40:20;;;;;;;39.75;24.98;;;;;;;;;;5080710;28;20024;-67
2021/05/20 03:42:46;;;;;;;34.95;23.23;;;;;;;;;;5088184;28;20019;-67
2021/05/20 03:45:12;;;;;;;34.67;23.50;;;;;;;;;;5068935;28;20020;-67
2021/05/20 03:47:39;;;;;;;34.45;22.73;;;;;;;;;;5065742;28;20097;-67
2021/05/20 03:50:05;;;;;;;32.13;22.77;;;;;;;;;;5062835;28;20040;-67
2021/05/20 03:52:31;;;;;;;32.70;22.48;;;;;;;;;;5091122;28;20063;-67
2021/05/20 03:54:57;;;;;;;35.83;23.92;;;;;;;;;;5089489;28;20036;-67
2021/05/20 03:57:23;;;;;;;34.25;22.25;;;;;;;;;;5079099;28;20496;-68
2021/05/20 03:59:49;;;;;;;33.53;21.23;;;;;;;;;;5088032;28;20399;-67
2021/05/20 04:02:15;;;;;;;36.90;22.90;;;;;;;;;;5085587;28;20476;-67
2021/05/20 04:04:41;;;;;;;37.25;23.50;;;;;;;;;;5090296;28;20043;-67
2021/05/20 04:07:07;;;;;;;35.15;24.48;;;;;;;;;;5091718;28;20491;-67
2021/05/20 04:09:33;;;;;;;37.38;24.23;;;;;;;;;;5086122;28;20043;-67
2021/05/20 04:11:59;;;;;;;33.58;22.75;;;;;;;;;;5085807;28;20056;-67
2021/05/20 04:14:26;;;;;;;34.78;23.88;;;;;;;;;;5079407;28;20077;-67
2021/05/20 04:16:52;;;;;;;36.05;23.05;;;;;;;;;;5089818;28;20078;-67
2021/05/20 04:19:18;;;;;;;36.75;22.48;;;;;;;;;;5089841;28;20089;-67
2021/05/20 04:21:44;;;;;;;38.20;23.95;;;;;;;;;;5090256;28;20433;-67
2021/05/20 04:24:11;;;;;;;33.58;23.27;;;;;;;;;;5087633;28;20047;-67
2021/05/20 04:26:37;;;;;;;38.15;24.02;;;;;;;;;;5078986;28;20035;-67
2021/05/20 04:29:03;;;;;;;35.97;23.25;;;;;;;;;;5079206;28;20025;-67
2021/05/20 04:31:30;;;;;;;37.33;24.50;;;;;;;;;;5079317;28;20099;-67
2021/05/20 04:33:56;;;;;;;40.33;26.02;;;;;;;;;;5079987;28;20039;-67
2021/05/20 04:36:22;;;;;;;40.10;25.67;;;;;;;;;;5086361;28;20039;-68
2021/05/20 04:38:48;;;;;;;33.50;23.70;;;;;;;;;;5079933;28;20024;-68
2021/05/20 04:41:14;;;;;;;36.40;25.45;;;;;;;;;;5090171;28;20562;-68
2021/05/20 04:43:40;;;;;;;35.80;23.52;;;;;;;;;;5072386;28;20032;-67
2021/05/20 04:46:06;;;;;;;37.53;24.00;;;;;;;;;;5068186;28;20023;-67
2021/05/20 04:48:32;;;;;;;36.65;23.77;;;;;;;;;;5090970;28;20487;-67
2021/05/20 04:51:00;;;;;;;37.65;24.15;;;;;;;;;;5089834;28;20535;-68
2021/05/20 04:53:26;;;;;;;35.00;24.77;;;;;;;;;;5071769;28;20499;-67
2021/05/20 04:55:52;;;;;;;35.92;24.48;;;;;;;;;;5089613;28;20024;-67
2021/05/20 04:58:19;;;;;;;39.17;25.85;;;;;;;;;;5088680;28;20506;-67
2021/05/20 05:00:45;;;;;;;40.42;26.83;;;;;;;;;;5084024;28;20016;-68
2021/05/20 05:03:11;;;;;;;41.67;28.35;;;;;;;;;;5081139;28;20093;-68
2021/05/20 05:05:37;;;;;;;40.65;28.15;;;;;;;;;;5075564;28;20029;-67
2021/05/20 05:08:03;;;;;;;45.20;27.70;;;;;;;;;;5070839;28;20114;-68
2021/05/20 05:10:30;;;;;;;34.85;25.30;;;;;;;;;;5060887;28;20071;-68
2021/05/20 05:12:56;;;;;;;40.72;27.23;;;;;;;;;;5089146;28;20506;-68
2021/05/20 05:15:22;;;;;;;39.22;26.38;;;;;;;;;;5088900;28;20046;-68
2021/05/20 05:17:48;;;;;;;35.20;24.55;;;;;;;;;;5088313;28;20028;-68
2021/05/20 05:20:14;;;;;;;35.25;24.70;;;;;;;;;;5081127;28;20032;-68
2021/05/20 05:22:40;;;;;;;43.42;27.70;;;;;;;;;;5059544;28;20054;-67
2021/05/20 05:25:06;;;;;;;39.03;26.02;;;;;;;;;;5088081;28;20076;-68
2021/05/20 05:27:33;;;;;;;50.10;28.40;;;;;;;;;;5086782;28;20056;-68
2021/05/20 05:29:59;;;;;;;51.08;29.80;;;;;;;;;;5068284;28;20039;-68
2021/05/20 05:32:25;;;;;;;46.65;28.52;;;;;;;;;;5090821;28;20024;-67
2021/05/20 05:34:51;;;;;;;49.60;32.83;;;;;;;;;;5068095;28;20127;-68
2021/05/20 05:37:17;;;;;;;47.22;32.35;;;;;;;;;;5089233;28;20040;-68
2021/05/20 05:39:43;;;;;;;48.30;31.17;;;;;;;;;;5072398;28;20036;-68
2021/05/20 05:42:09;;;;;;;48.30;31.48;;;;;;;;;;5071927;28;20050;-68
2021/05/20 05:44:35;;;;;;;48.83;34.45;;;;;;;;;;5062094;28;20400;-68
2021/05/20 05:47:01;;;;;;;45.97;32.85;;;;;;;;;;5082390;28;20109;-68
2021/05/20 05:49:29;;;;;;;49.92;35.17;;;;;;;;;;5082465;28;20546;-68
2021/05/20 05:51:59;;;;;;;46.38;32.50;;;;;;;;;;5084039;28;20037;-68
2021/05/20 05:54:26;;;;;;;47.88;34.20;;;;;;;;;;5084155;28;20046;-68
2021/05/20 05:56:52;;;;;;;47.97;34.60;;;;;;;;;;5084354;28;20483;-68
2021/05/20 05:59:18;;;;;;;46.85;34.08;;;;;;;;;;5086702;28;20020;-68
2021/05/20 06:01:44;;;;;;;45.20;33.47;;;;;;;;;;5087175;28;20029;-68
2021/05/20 06:04:10;;;;;;;51.03;34.75;;;;;;;;;;5084265;28;20051;-68
2021/05/20 06:06:37;;;;;;;47.92;33.00;;;;;;;;;;5086165;28;20021;-68
2021/05/20 06:09:06;;;;;;;45.08;33.60;;;;;;;;;;5084347;28;20017;-68
2021/05/20 06:11:36;;;;;;;41.75;31.70;;;;;;;;;;5087299;28;20031;-68
2021/05/20 06:14:04;;;;;;;43.45;32.47;;;;;;;;;;5087851;28;20030;-68
2021/05/20 06:16:33;;;;;;;44.42;34.08;;;;;;;;;;5085440;28;20047;-68
2021/05/20 06:18:59;;;;;;;45.47;32.13;;;;;;;;;;5084399;28;20502;-69
2021/05/20 06:21:25;;;;;;;44.88;33.65;;;;;;;;;;5083703;28;20020;-68
2021/05/20 06:23:52;;;;;;;42.67;31.63;;;;;;;;;;5072622;28;20028;-68
2021/05/20 06:26:18;;;;;;;50.38;34.00;;;;;;;;;;5089180;28;20166;-69
2021/05/20 06:28:44;;;;;;;46.47;35.58;;;;;;;;;;5073946;28;20028;-69
2021/05/20 06:31:10;;;;;;;43.33;33.25;;;;;;;;;;5090147;28;20497;-68
2021/05/20 06:33:36;;;;;;;47.03;33.05;;;;;;;;;;5072011;28;20039;-68
2021/05/20 06:36:02;;;;;;;43.83;31.85;;;;;;;;;;5086364;28;20399;-68
2021/05/20 06:38:28;;;;;;;38.08;27.95;;;;;;;;;;5088877;28;20035;-68
2021/05/20 06:40:55;;;;;;;37.10;26.08;;;;;;;;;;5090540;28;20026;-68
2021/05/20 06:43:21;;;;;;;36.55;27.15;;;;;;;;;;5067291;28;20423;-68
2021/05/20 06:45:47;;;;;;;37.67;26.95;;;;;;;;;;5087188;28;20020;-68
2021/05/20 06:48:17;;;;;;;36.50;25.27;;;;;;;;;;5090502;28;20020;-68
2021/05/20 06:50:44;;;;;;;31.73;22.60;;;;;;;;;;5088571;28;20016;-68
2021/05/20 06:53:10;;;;;;;28.60;20.65;;;;;;;;;;5084482;28;20036;-68
2021/05/20 06:55:37;;;;;;;22.65;17.80;;;;;;;;;;5071135;28;20025;-68
2021/05/20 07:00:33;;;;;;;22.13;16.70;;;;;;;;;;5089608;28;20114;-68
2021/05/20 07:02:59;;;;;;;22.33;17.40;;;;;;;;;;5084719;28;20071;-68
2021/05/20 07:05:25;;;;;;;26.27;16.70;;;;;;;;;;5072157;28;20035;-68
2021/05/20 07:07:52;;;;;;;26.83;17.48;;;;;;;;;;5085690;28;20035;-68
2021/05/20 07:10:18;;;;;;;21.77;16.90;;;;;;;;;;5085578;28;20032;-68
2021/05/20 07:12:44;;;;;;;24.70;17.08;;;;;;;;;;5088760;28;20032;-68
2021/05/20 07:15:11;;;;;;;27.67;16.67;;;;;;;;;;5065191;28;20035;-68
2021/05/20 07:17:37;;;;;;;26.08;16.75;;;;;;;;;;5087796;28;20027;-68
2021/05/20 07:20:06;;;;;;;22.67;16.70;;;;;;;;;;5090530;28;20050;-68
2021/05/20 07:22:32;;;;;;;22.83;17.65;;;;;;;;;;5085823;28;20016;-68
2021/05/20 07:25:05;;;;;;;25.58;18.65;;;;;;;;;;5070166;28;20023;-68
2021/05/20 07:27:32;;;;;;;27.15;18.48;;;;;;;;;;5086759;28;20489;-68
2021/05/20 07:29:58;;;;;;;25.45;19.85;;;;;;;;;;5074515;28;20032;-67
2021/05/20 07:32:26;;;;;;;26.40;17.70;;;;;;;;;;5087048;28;20028;-67
2021/05/20 07:34:52;;;;;;;22.40;16.60;;;;;;;;;;5090207;28;20020;-68
2021/05/20 07:37:18;;;;;;;21.30;15.93;;;;;;;;;;5092302;28;20031;-68
2021/05/20 07:39:44;;;;;;;20.98;15.65;;;;;;;;;;5072287;28;20372;-68
2021/05/20 07:42:10;;;;;;;21.45;14.65;;;;;;;;;;5092016;28;20073;-68
2021/05/20 07:44:38;;;;;;;20.65;13.57;;;;;;;;;;5089292;28;20103;-68
2021/05/20 07:47:04;;;;;;;19.90;12.43;;;;;;;;;;5088065;28;20058;-68
2021/05/20 07:49:32;;;;;;;21.98;14.50;;;;;;;;;;5090526;28;20121;-68
2021/05/20 07:51:58;;;;;;;17.88;13.65;;;;;;;;;;5066777;28;20113;-68
2021/05/20 07:54:24;;;;;;;18.02;12.38;;;;;;;;;;5084876;28;20032;-68
2021/05/20 07:56:50;;;;;;;18.05;13.27;;;;;;;;;;5071764;28;20988;-68
2021/05/20 07:59:16;;;;;;;15.63;11.73;;;;;;;;;;5081403;28;20028;-68
2021/05/20 08:01:55;;;;;;;16.50;11.50;;;;;;;;;;5086131;28;20016;-68
2021/05/20 08:04:25;;;;;;;16.38;9.90;;;;;;;;;;5081642;28;20106;-68
2021/05/20 08:06:56;;;;;;;15.60;9.88;;;;;;;;;;5084233;28;20055;-68
2021/05/20 08:09:33;;;;;;;13.45;9.23;;;;;;;;;;5084390;28;20141;-68
2021/05/20 08:11:59;;;;;;;13.80;9.38;;;;;;;;;;5074448;28;20016;-67
2021/05/20 08:14:25;;;;;;;14.93;8.98;;;;;;;;;;5078721;28;20119;-68
2021/05/20 08:16:51;;;;;;;13.38;8.00;;;;;;;;;;5083289;28;20020;-67
2021/05/20 08:19:17;;;;;;;7.95;4.65;;;;;;;;;;5082040;28;20050;-67
2021/05/20 08:21:43;;;;;;;11.63;5.95;;;;;;;;;;5074846;28;20027;-68
2021/05/20 08:24:09;;;;;;;6.38;3.85;;;;;;;;;;5081597;28;20035;-68
2021/05/20 08:26:36;;;;;;;7.63;4.90;;;;;;;;;;5079972;28;20035;-68
2021/05/20 08:29:02;;;;;;;9.60;5.60;;;;;;;;;;5085524;28;20036;-67
2021/05/20 08:31:29;;;;;;;11.45;5.53;;;;;;;;;;5081684;28;20479;-68
2021/05/20 08:33:56;;;;;;;7.82;4.65;;;;;;;;;;5081277;28;20036;-68
2021/05/20 08:36:24;;;;;;;7.65;4.88;;;;;;;;;;5077775;28;20032;-69
2021/05/20 08:38:51;;;;;;;8.00;4.55;;;;;;;;;;5082729;28;20020;-69
2021/05/20 08:41:20;;;;;;;7.05;4.03;;;;;;;;;;5082657;28;20112;-68
2021/05/20 08:43:48;;;;;;;6.25;3.80;;;;;;;;;;5080331;28;20555;-68
2021/05/20 08:46:22;;;;;;;8.52;4.45;;;;;;;;;;5079385;28;20201;-68
2021/05/20 08:48:48;;;;;;;12.52;6.10;;;;;;;;;;5088007;28;20514;-69
2021/05/20 08:51:14;;;;;;;8.77;5.78;;;;;;;;;;5078501;28;20112;-68
2021/05/20 08:53:40;;;;;;;10.43;5.50;;;;;;;;;;5087575;28;20031;-68
2021/05/20 08:56:10;;;;;;;12.68;7.18;;;;;;;;;;5086632;28;20047;-69
2021/05/20 08:58:36;;;;;;;12.65;7.60;;;;;;;;;;5080083;28;20863;-69
2021/05/20 09:01:02;;;;;;;12.55;7.63;;;;;;;;;;5089286;28;20437;-69
2021/05/20 09:03:28;;;;;;;9.32;6.78;;;;;;;;;;5086853;28;20047;-68
2021/05/20 09:05:58;;;;;;;10.18;6.82;;;;;;;;;;5079820;28;20020;-69
2021/05/20 09:08:31;;;;;;;9.77;5.95;;;;;;;;;;5069364;28;20028;-68
2021/05/20 09:10:57;;;;;;;12.05;6.75;;;;;;;;;;5082927;28;20031;-68
2021/05/20 09:13:23;;;;;;;12.23;6.60;;;;;;;;;;5082612;28;20113;-69
2021/05/20 09:15:51;;;;;;;10.10;7.07;;;;;;;;;;5082664;28;20487;-68
2021/05/20 09:18:24;;;;;;;10.80;6.75;;;;;;;;;;5069931;28;20035;-71
2021/05/20 09:20:54;;;;;;;10.57;6.47;;;;;;;;;;5085129;28;20024;-68
2021/05/20 09:23:20;;;;;;;12.57;6.93;;;;;;;;;;5085494;28;20048;-68
2021/05/20 09:25:47;;;;;;;10.15;7.15;;;;;;;;;;5081086;28;20092;-69
2021/05/20 09:28:14;;;;;;;9.57;6.47;;;;;;;;;;5065638;28;20097;-68
2021/05/20 09:30:41;;;;;;;16.35;7.63;;;;;;;;;;5068356;28;20613;-68
2021/05/20 09:33:12;;;;;;;13.15;7.22;;;;;;;;;;5089350;28;20031;-68
2021/05/20 09:35:39;;;;;;;9.95;7.07;;;;;;;;;;5082055;28;20400;-69
2021/05/20 09:38:06;;;;;;;12.60;7.25;;;;;;;;;;5057480;28;20024;-68
2021/05/20 09:40:37;;;;;;;9.73;6.50;;;;;;;;;;5079306;28;20463;-68
2021/05/20 09:43:22;;;;;;;14.88;6.47;;;;;;;;;;5079927;28;20012;-68
2021/05/20 09:45:50;;;;;;;13.68;8.55;;;;;;;;;;5074314;28;20062;-69
2021/05/20 09:48:16;;;;;;;10.55;6.97;;;;;;;;;;5082151;28;20217;-68
2021/05/20 09:50:43;;;;;;;11.45;7.13;;;;;;;;;;5082872;28;20028;-69
2021/05/20 09:53:10;;;;;;;11.07;7.22;;;;;;;;;;5061088;28;20055;-68
2021/05/20 09:55:43;;;;;;;15.60;7.57;;;;;;;;;;5079861;28;20028;-68
2021/05/20 09:58:10;;;;;;;10.80;7.30;;;;;;;;;;5084066;28;20448;-68
2021/05/20 10:00:37;;;;;;;13.95;7.25;;;;;;;;;;5064806;28;20514;-68
2021/05/20 10:03:07;;;;;;;9.50;7.07;;;;;;;;;;5080107;28;20055;-68
2021/05/20 10:05:36;;;;;;;9.73;6.80;;;;;;;;;;5082774;28;20483;-69
2021/05/20 10:08:13;;;;;;;14.30;7.43;;;;;;;;;;5085781;28;20107;-69
2021/05/20 10:10:40;;;;;;;13.18;6.57;;;;;;;;;;5081484;28;20244;-68
2021/05/20 10:13:14;;;;;;;13.27;7.20;;;;;;;;;;5086625;28;20433;-69
2021/05/20 10:15:40;;;;;;;10.00;6.60;;;;;;;;;;5071062;28;20028;-70
2021/05/20 10:18:11;;;;;;;10.30;6.20;;;;;;;;;;5085164;28;20380;-69
2021/05/20 10:20:37;;;;;;;9.50;5.85;;;;;;;;;;5082945;28;20024;-69
2021/05/20 10:23:14;;;;;;;8.43;5.45;;;;;;;;;;5063862;28;20400;-68
2021/05/20 10:25:40;;;;;;;8.80;5.20;;;;;;;;;;5082796;28;20020;-68
2021/05/20 10:28:08;;;;;;;8.43;5.32;;;;;;;;;;5086479;28;20039;-68
2021/05/20 10:30:35;;;;;;;10.73;5.88;;;;;;;;;;5068994;28;20407;-69
2021/05/20 10:33:01;;;;;;;8.77;5.35;;;;;;;;;;5084302;28;20032;-69
2021/05/20 10:35:46;;;;;;;15.75;7.25;;;;;;;;;;5081379;28;20482;-69
2021/05/20 10:38:13;;;;;;;9.52;5.50;;;;;;;;;;5071050;28;20579;-69
2021/05/20 10:40:39;;;;;;;9.30;5.72;;;;;;;;;;5090020;28;20028;-69
2021/05/20 10:43:16;;;;;;;9.10;5.28;;;;;;;;;;5092109;28;20035;-70
2021/05/20 10:46:08;;;;;;;7.95;4.68;;;;;;;;;;5066663;28;20020;-70
2021/05/20 10:48:35;;;;;;;8.93;4.22;;;;;;;;;;5080156;28;20051;-69
2021/05/20 10:51:02;;;;;;;7.45;3.90;;;;;;;;;;5085402;28;20299;-68
2021/05/20 10:53:44;;;;;;;10.75;3.45;;;;;;;;;;5072357;28;20072;-69
2021/05/20 10:56:17;;;;;;;8.70;4.88;;;;;;;;;;5085718;28;20043;-69
2021/05/20 10:58:44;;;;;;;11.43;5.45;;;;;;;;;;5089495;28;20032;-69
2021/05/20 11:01:24;;;;;;;9.23;5.63;;;;;;;;;;5089292;28;20066;-68
2021/05/20 11:03:50;;;;;;;10.73;6.25;;;;;;;;;;5069411;28;20423;-69
2021/05/20 11:06:16;;;;;;;11.02;6.72;;;;;;;;;;5066726;28;20024;-68
2021/05/20 11:08:42;;;;;;;10.93;8.07;;;;;;;;;;5084695;28;20016;-69
2021/05/20 11:11:29;;;;;;;19.15;10.63;;;;;;;;;;5089813;28;20113;-68
2021/05/20 11:13:55;;;;;;;17.25;10.70;;;;;;;;;;5072554;28;20050;-69
2021/05/20 11:16:30;;;;;;;17.52;12.15;;;;;;;;;;5083919;28;20303;-69
2021/05/20 11:19:15;;;;;;;18.58;11.20;;;;;;;;;;5086624;28;20028;-72
2021/05/20 11:22:07;;;;;;;18.17;10.48;;;;;;;;;;5088669;28;20515;-68
2021/05/20 11:24:37;;;;;;;18.17;9.82;;;;;;;;;;5081758;28;20085;-69
2021/05/20 11:27:08;;;;;;;15.90;9.45;;;;;;;;;;5083288;28;20112;-68
2021/05/20 11:29:35;;;;;;;13.60;9.23;;;;;;;;;;5085843;28;20032;-69
2021/05/20 11:32:17;;;;;;;17.10;10.52;;;;;;;;;;5081945;28;20020;-68
2021/05/20 11:37:23;;;;;;;22.38;13.43;;;;;;;;;;5084137;28;20032;-69
2021/05/20 11:39:49;;;;;;;24.90;13.48;;;;;;;;;;5063735;28;20131;-68
2021/05/20 11:42:28;;;;;;;24.83;14.68;;;;;;;;;;5083211;28;20021;-68
2021/05/20 11:44:55;;;;;;;28.80;16.27;;;;;;;;;;5086453;28;20495;-68
2021/05/20 11:47:22;;;;;;;29.70;16.40;;;;;;;;;;5084287;28;20572;-68
2021/05/20 11:49:48;;;;;;;29.98;18.05;;;;;;;;;;5084180;28;20028;-69
2021/05/20 11:52:14;;;;;;;32.17;19.17;;;;;;;;;;5083458;28;20604;-68
2021/05/20 11:54:43;;;;;;;34.47;18.45;;;;;;;;;;5080319;28;20495;-70
2021/05/20 11:57:09;;;;;;;29.55;17.35;;;;;;;;;;5090607;28;20093;-70
2021/05/20 11:59:38;;;;;;;27.08;15.85;;;;;;;;;;5091713;28;20027;-68
2021/05/20 12:02:06;;;;;;;29.38;17.40;;;;;;;;;;5088674;28;20032;-68
2021/05/20 12:04:32;;;;;;;27.70;16.80;;;;;;;;;;5085286;28;20067;-69
2021/05/20 12:06:59;;;;;;;25.88;14.95;;;;;;;;;;5062836;28;20496;-69
2021/05/20 12:09:25;;;;;;;26.67;15.27;;;;;;;;;;5082087;28;20480;-71
2021/05/20 12:11:51;;;;;;;21.80;15.50;;;;;;;;;;5064799;28;20114;-69
2021/05/20 12:14:29;;;;;;;23.45;14.65;;;;;;;;;;5066769;28;20328;-69
2021/05/20 12:17:08;;;;;;;23.83;14.85;;;;;;;;;;5083053;28;20503;-69
2021/05/20 12:19:39;;;;;;;24.35;14.93;;;;;;;;;;5083481;28;20483;-70
2021/05/20 12:22:06;;;;;;;21.25;14.25;;;;;;;;;;5069934;28;20040;-68
2021/05/20 12:24:34;;;;;;;28.15;14.52;;;;;;;;;;5076678;28;20427;-68
2021/05/20 12:27:07;;;;;;;20.50;13.57;;;;;;;;;;5063092;28;20054;-68
2021/05/20 12:29:34;;;;;;;20.70;14.50;;;;;;;;;;5082381;28;20056;-68
2021/05/20 12:32:00;;;;;;;24.27;14.73;;;;;;;;;;5088720;28;20020;-69
2021/05/20 12:34:26;;;;;;;20.77;13.95;;;;;;;;;;5077306;28;20353;-68
2021/05/20 12:37:01;;;;;;;25.00;14.80;;;;;;;;;;5077117;28;20044;-69
2021/05/20 12:39:27;;;;;;;19.90;14.02;;;;;;;;;;5089859;28;20016;-67
2021/05/20 12:41:53;;;;;;;22.20;15.20;;;;;;;;;;5089504;28;20095;-67
2021/05/20 12:44:19;;;;;;;21.98;14.10;;;;;;;;;;5066721;28;20020;-67
2021/05/20 12:46:45;;;;;;;21.38;13.77;;;;;;;;;;5084469;28;20104;-67
2021/05/20 12:49:19;;;;;;;26.60;14.93;;;;;;;;;;5086683;28;20032;-67
2021/05/20 12:51:55;;;;;;;22.50;14.00;;;;;;;;;;5088053;28;20028;-69
2021/05/20 12:54:25;;;;;;;24.55;13.90;;;;;;;;;;5082295;28;20483;-68
2021/05/20 12:57:01;;;;;;;22.25;13.93;;;;;;;;;;5085206;28;20032;-67
2021/05/20 12:59:37;;;;;;;20.13;12.80;;;;;;;;;;5078234;28;20024;-67
2021/05/20 13:02:07;;;;;;;22.92;14.57;;;;;;;;;;5079974;28;20016;-68
2021/05/20 13:04:33;;;;;;;23.00;11.23;;;;;;;;;;5061721;28;20393;-69
2021/05/20 13:06:59;;;;;;;19.60;12.85;;;;;;;;;;5060550;28;20048;-67
2021/05/20 13:09:29;;;;;;;20.48;12.75;;;;;;;;;;5058480;28;20036;-68
2021/05/20 13:12:00;;;;;;;20.45;11.75;;;;;;;;;;5058136;28;20024;-68
2021/05/20 13:14:47;;;;;;;22.70;12.45;;;;;;;;;;5058482;28;20020;-67
2021/05/20 13:17:42;;;;;;;18.17;11.40;;;;;;;;;;5060144;28;20036;-67
2021/05/20 13:23:04;;;;;;;19.40;11.52;;;;;;;;;;5064753;28;20028;-68
2021/05/20 13:25:31;;;;;;;16.65;10.55;;;;;;;;;;5061124;28;20082;-67
2021/05/20 13:27:57;;;;;;;18.38;10.38;;;;;;;;;;5059714;28;20020;-67
2021/05/20 13:33:00;;;;;;;17.55;9.05;;;;;;;;;;5061480;28;20040;-67
2021/05/20 13:35:31;;;;;;;15.10;8.20;;;;;;;;;;5065028;28;20086;-68
2021/05/20 13:37:57;;;;;;;14.25;8.80;;;;;;;;;;5063227;28;20112;-68
2021/05/20 13:40:25;;;;;;;19.63;8.88;;;;;;;;;;5062470;28;20119;-67
2021/05/20 13:42:52;;;;;;;15.20;9.25;;;;;;;;;;5061334;28;20963;-67
2021/05/20 13:45:19;;;;;;;15.60;8.02;;;;;;;;;;5061281;28;20086;-67
2021/05/20 13:47:45;;;;;;;20.38;8.50;;;;;;;;;;5052400;28;20033;-67
2021/05/20 13:50:12;;;;;;;17.80;7.28;;;;;;;;;;5062997;28;20029;-68
2021/05/20 13:52:41;;;;;;;10.25;6.22;;;;;;;;;;5065495;28;20028;-67
2021/05/20 13:55:07;;;;;;;14.02;7.03;;;;;;;;;;5058348;28;20043;-69
2021/05/20 13:57:33;;;;;;;13.40;6.55;;;;;;;;;;5059657;28;20036;-68
2021/05/20 14:00:02;;;;;;;13.38;6.75;;;;;;;;;;5058229;28;20488;-67
2021/05/20 14:02:34;;;;;;;16.13;7.80;;;;;;;;;;5064731;28;20098;-68
2021/05/20 14:05:00;;;;;;;19.77;8.45;;;;;;;;;;5064253;28;20021;-69
2021/05/20 14:07:27;;;;;;;10.98;6.97;;;;;;;;;;5074784;28;20028;-70
2021/05/20 14:09:53;;;;;;;10.48;5.93;;;;;;;;;;5088472;28;20047;-67
2021/05/20 14:12:20;;;;;;;14.82;6.07;;;;;;;;;;5082978;28;20041;-70
2021/05/20 14:14:48;;;;;;;13.88;5.40;;;;;;;;;;5081846;28;20036;-70
2021/05/20 14:17:18;;;;;;;14.18;7.13;;;;;;;;;;5059060;28;20028;-70
2021/05/20 14:19:51;;;;;;;13.32;5.60;;;;;;;;;;5088026;28;20032;-70
2021/05/20 14:22:20;;;;;;;17.80;5.82;;;;;;;;;;5086670;28;20073;-71
2021/05/20 14:24:50;;;;;;;11.50;5.35;;;;;;;;;;5078079;28;20020;-70
2021/05/20 14:27:18;;;;;;;15.23;6.57;;;;;;;;;;5066023;28;20055;-68
2021/05/20 14:29:44;;;;;;;12.85;5.63;;;;;;;;;;5088409;28;20046;-69
2021/05/20 14:32:10;;;;;;;11.82;6.03;;;;;;;;;;5084881;28;20028;-73
2021/05/20 14:34:37;;;;;;;11.52;5.40;;;;;;;;;;5066955;28;20035;-72
2021/05/20 14:37:03;;;;;;;8.60;5.55;;;;;;;;;;5079165;28;20020;-71